Time;durP1;ratioP1;P1;durP2;ratioP2;P2;SDS_P1;SDS_P2;PMS_P1;PMS_P2;Temp;Humidity;BMP_temperature;BMP_pressure;BME280_temperature;BME280_humidity;BME280_pressure;Samples;Min_cycle;Max_cycle;Signal;HPM_P1;HPM_P2
2022/01/16 00:00:20;;;;;;;41.30;19.35;;;;;;;;;;5044812;28;20051;-59
2022/01/16 00:05:26;;;;;;;37.65;17.50;;;;;;;;;;5063081;28;20492;-60
2022/01/16 00:07:52;;;;;;;38.10;18.05;;;;;;;;;;5064634;28;20039;-59
2022/01/16 00:10:19;;;;;;;34.13;16.73;;;;;;;;;;5063967;28;20509;-60
2022/01/16 00:12:48;;;;;;;33.70;16.98;;;;;;;;;;5054112;28;20438;-60
2022/01/16 00:15:19;;;;;;;30.70;15.10;;;;;;;;;;5044424;28;20052;-60
2022/01/16 00:20:24;;;;;;;33.22;14.98;;;;;;;;;;5044245;28;20080;-60
2022/01/16 00:22:51;;;;;;;32.92;16.30;;;;;;;;;;5043317;28;20036;-60
2022/01/16 00:25:18;;;;;;;31.05;16.08;;;;;;;;;;5064037;28;20648;-59
2022/01/16 00:27:44;;;;;;;30.35;14.88;;;;;;;;;;5054615;28;20025;-60
2022/01/16 00:30:11;;;;;;;28.02;14.80;;;;;;;;;;5042460;28;20044;-59
2022/01/16 00:32:37;;;;;;;29.15;14.60;;;;;;;;;;5044304;28;20021;-59
2022/01/16 00:35:04;;;;;;;27.92;14.82;;;;;;;;;;5046998;28;20037;-59
2022/01/16 00:37:30;;;;;;;27.75;14.13;;;;;;;;;;5064118;28;20104;-59
2022/01/16 00:39:56;;;;;;;32.60;15.57;;;;;;;;;;5064671;28;20307;-59
2022/01/16 00:42:22;;;;;;;27.88;14.35;;;;;;;;;;5057606;28;20032;-60
2022/01/16 00:44:48;;;;;;;26.73;14.32;;;;;;;;;;5058907;28;20583;-59
2022/01/16 00:47:14;;;;;;;27.92;13.93;;;;;;;;;;5062116;28;20020;-59
2022/01/16 00:49:41;;;;;;;27.55;14.45;;;;;;;;;;5063910;28;20551;-60
2022/01/16 00:52:07;;;;;;;30.38;14.90;;;;;;;;;;5063820;28;20044;-60
2022/01/16 00:54:34;;;;;;;30.45;15.00;;;;;;;;;;5063953;28;20100;-59
2022/01/16 00:57:01;;;;;;;31.45;15.43;;;;;;;;;;5059323;28;20035;-59
2022/01/16 00:59:27;;;;;;;29.00;15.10;;;;;;;;;;5061856;28;20439;-59
2022/01/16 01:01:53;;;;;;;30.20;15.00;;;;;;;;;;5063974;28;20557;-59
2022/01/16 01:04:20;;;;;;;30.98;15.18;;;;;;;;;;5063974;28;20032;-59
2022/01/16 01:06:50;;;;;;;31.35;15.70;;;;;;;;;;5063515;28;20028;-59
2022/01/16 01:09:18;;;;;;;29.23;15.10;;;;;;;;;;5060162;28;20091;-59
2022/01/16 01:11:48;;;;;;;32.35;16.25;;;;;;;;;;5062246;28;20031;-61
2022/01/16 01:17:01;;;;;;;31.23;15.40;;;;;;;;;;5056599;28;20035;-61
2022/01/16 01:19:34;;;;;;;34.90;16.08;;;;;;;;;;5061855;28;20040;-61
2022/01/16 01:22:01;;;;;;;;;;;;;;;;;;5068828;28;20086;-61
2022/01/16 01:24:29;;;;;;;35.50;15.90;;;;;;;;;;5066350;28;19908;-61
2022/01/16 01:27:09;;;;;;;35.28;16.13;;;;;;;;;;5068129;28;20064;-61
2022/01/16 01:29:36;;;;;;;32.22;15.45;;;;;;;;;;5049814;28;20451;-61
2022/01/16 01:32:02;;;;;;;28.08;14.32;;;;;;;;;;5049860;28;20381;-61
2022/01/16 01:34:30;;;;;;;31.38;15.10;;;;;;;;;;5057197;28;20025;-61
2022/01/16 01:36:56;;;;;;;31.95;15.52;;;;;;;;;;5070462;28;20029;-61
2022/01/16 01:39:23;;;;;;;31.52;15.40;;;;;;;;;;5069320;28;20038;-61
2022/01/16 01:41:51;;;;;;;31.77;15.63;;;;;;;;;;5067915;28;20039;-61
2022/01/16 01:52:32;;;;;;;32.20;15.05;;;;;;;;;;5067262;28;20055;-61
2022/01/16 01:54:58;;;;;;;34.15;16.85;;;;;;;;;;5066829;28;20104;-61
2022/01/16 01:57:24;;;;;;;35.42;16.17;;;;;;;;;;5062996;28;20032;-61
2022/01/16 01:59:50;;;;;;;32.38;16.38;;;;;;;;;;5049397;28;20396;-61
2022/01/16 02:02:16;;;;;;;35.08;16.65;;;;;;;;;;5048993;28;20503;-61
2022/01/16 02:04:42;;;;;;;37.72;17.33;;;;;;;;;;5052996;28;20488;-61
2022/01/16 02:07:08;;;;;;;38.67;17.40;;;;;;;;;;5068860;28;20032;-61
2022/01/16 02:09:35;;;;;;;36.22;17.02;;;;;;;;;;5062503;28;20472;-61
2022/01/16 02:12:02;;;;;;;35.05;17.05;;;;;;;;;;5048187;28;20029;-61
2022/01/16 02:14:44;;;;;;;36.75;18.27;;;;;;;;;;5053007;28;20013;-61
2022/01/16 02:35:59;;;;;;;35.65;17.45;;;;;;;;;;5062129;28;20067;-61
2022/01/16 02:38:25;;;;;;;35.70;17.17;;;;;;;;;;5048881;28;20419;-61
2022/01/16 02:40:59;;;;;;;34.08;16.83;;;;;;;;;;5048739;28;20029;-61
2022/01/16 02:43:31;;;;;;;35.63;17.23;;;;;;;;;;5050430;28;20036;-61
2022/01/16 02:47:01;;;;;;;37.03;17.38;;;;;;;;;;5048186;28;20033;-61
2022/01/16 02:48:56;;;;;;;34.10;16.38;;;;;;;;;;5035386;28;20040;-61
2022/01/16 02:51:23;;;;;;;45.63;19.67;;;;;;;;;;5048146;28;20095;-61
2022/01/16 02:53:50;;;;;;;42.13;18.17;;;;;;;;;;5056611;28;20492;-61
2022/01/16 02:56:18;;;;;;;39.45;18.65;;;;;;;;;;5066226;28;20109;-61
2022/01/16 02:58:45;;;;;;;35.85;16.58;;;;;;;;;;5047633;28;20041;-62
2022/01/16 03:01:11;;;;;;;32.88;15.68;;;;;;;;;;5047902;28;20108;-61
2022/01/16 03:03:37;;;;;;;35.78;17.30;;;;;;;;;;5048170;28;20033;-61
2022/01/16 03:06:04;;;;;;;36.28;17.10;;;;;;;;;;5046405;28;20029;-61
2022/01/16 03:08:30;;;;;;;35.55;15.85;;;;;;;;;;5063322;28;20434;-62
2022/01/16 03:13:22;;;;;;;42.85;17.65;;;;;;;;;;5052987;28;20400;-61
2022/01/16 03:15:52;;;;;;;40.50;19.13;;;;;;;;;;5047887;28;20021;-61
2022/01/16 03:23:31;;;;;;;40.80;18.70;;;;;;;;;;5065015;28;20079;-61
2022/01/16 03:25:57;;;;;;;44.33;19.35;;;;;;;;;;5068437;28;20032;-61
2022/01/16 03:28:25;;;;;;;44.15;18.70;;;;;;;;;;5048354;28;20462;-61
2022/01/16 03:30:52;;;;;;;40.95;19.17;;;;;;;;;;5047705;28;20025;-61
2022/01/16 03:33:18;;;;;;;38.50;18.63;;;;;;;;;;5047295;28;20096;-61
2022/01/16 03:35:44;;;;;;;39.85;17.95;;;;;;;;;;5047660;28;20021;-61
2022/01/16 03:38:10;;;;;;;38.72;17.20;;;;;;;;;;5057663;28;20036;-61
2022/01/16 03:40:37;;;;;;;32.00;15.75;;;;;;;;;;5063653;28;20492;-61
2022/01/16 03:43:13;;;;;;;32.17;15.55;;;;;;;;;;5050924;28;20045;-61
2022/01/16 03:45:40;;;;;;;35.38;16.48;;;;;;;;;;5047366;28;20044;-61
2022/01/16 03:48:06;;;;;;;34.00;16.08;;;;;;;;;;5046949;28;20025;-61
2022/01/16 03:50:32;;;;;;;36.88;17.73;;;;;;;;;;5047312;28;20040;-61
2022/01/16 03:52:59;;;;;;;39.25;17.33;;;;;;;;;;5044907;28;20386;-61
2022/01/16 03:55:25;;;;;;;36.00;17.23;;;;;;;;;;5045653;28;20430;-61
2022/01/16 03:57:51;;;;;;;37.53;17.90;;;;;;;;;;5046492;28;20029;-61
2022/01/16 04:00:17;;;;;;;35.05;17.30;;;;;;;;;;5046684;28;20013;-61
2022/01/16 04:02:43;;;;;;;37.88;17.60;;;;;;;;;;5046942;28;20060;-61
2022/01/16 04:05:09;;;;;;;39.92;17.88;;;;;;;;;;5045998;28;20033;-61
2022/01/16 04:07:35;;;;;;;36.92;17.40;;;;;;;;;;5046526;28;20045;-61
2022/01/16 04:10:06;;;;;;;38.92;17.15;;;;;;;;;;5046278;28;20017;-61
2022/01/16 04:12:34;;;;;;;40.22;17.95;;;;;;;;;;5045942;28;20028;-61
2022/01/16 04:17:27;;;;;;;36.83;17.35;;;;;;;;;;5047653;28;20035;-61
2022/01/16 04:19:53;;;;;;;37.78;17.75;;;;;;;;;;5046815;28;20094;-61
2022/01/16 04:22:20;;;;;;;39.78;18.35;;;;;;;;;;5046270;28;20032;-61
2022/01/16 04:24:46;;;;;;;38.00;18.02;;;;;;;;;;5048266;28;20590;-61
2022/01/16 04:27:13;;;;;;;35.80;17.27;;;;;;;;;;5059589;28;20064;-61
2022/01/16 04:29:42;;;;;;;36.40;16.63;;;;;;;;;;5045266;28;20025;-61
2022/01/16 04:32:09;;;;;;;35.00;16.35;;;;;;;;;;5054034;28;20032;-61
2022/01/16 04:34:35;;;;;;;31.90;16.17;;;;;;;;;;5059447;28;20025;-61
2022/01/16 04:37:01;;;;;;;34.05;15.73;;;;;;;;;;5046447;28;20056;-61
2022/01/16 04:39:35;;;;;;;27.65;14.27;;;;;;;;;;5046183;28;20025;-61
2022/01/16 04:44:49;;;;;;;26.70;13.57;;;;;;;;;;5051075;28;20133;-61
2022/01/16 04:47:15;;;;;;;29.20;14.27;;;;;;;;;;5066021;28;20036;-61
2022/01/16 04:49:41;;;;;;;29.20;14.43;;;;;;;;;;5066785;28;20036;-61
2022/01/16 04:52:07;;;;;;;30.75;15.07;;;;;;;;;;5065950;28;20025;-61
2022/01/16 04:54:33;;;;;;;29.30;15.05;;;;;;;;;;5063968;28;20797;-61
2022/01/16 04:56:59;;;;;;;27.10;14.30;;;;;;;;;;5062089;28;20411;-61
2022/01/16 04:59:25;;;;;;;30.17;14.65;;;;;;;;;;5045998;28;20025;-61
2022/01/16 05:01:51;;;;;;;25.60;13.18;;;;;;;;;;5046115;28;20021;-61
2022/01/16 05:04:17;;;;;;;32.47;16.38;;;;;;;;;;5045884;28;20503;-61
2022/01/16 05:06:43;;;;;;;30.77;14.65;;;;;;;;;;5065919;28;20054;-61
2022/01/16 05:09:10;;;;;;;29.85;14.43;;;;;;;;;;5066575;28;20533;-61
2022/01/16 05:11:37;;;;;;;32.83;15.90;;;;;;;;;;5065711;28;20487;-61
2022/01/16 05:16:41;;;;;;;31.50;14.95;;;;;;;;;;5061639;28;20029;-61
2022/01/16 05:19:11;;;;;;;33.03;15.25;;;;;;;;;;5066038;28;20576;-61
2022/01/16 05:21:38;;;;;;;29.25;15.00;;;;;;;;;;5065834;28;20033;-61
2022/01/16 05:24:08;;;;;;;31.55;15.23;;;;;;;;;;5063931;28;20151;-61
2022/01/16 05:26:35;;;;;;;29.55;14.90;;;;;;;;;;5065556;28;20029;-61
2022/01/16 05:29:01;;;;;;;30.13;14.52;;;;;;;;;;5045894;28;20017;-61
2022/01/16 05:31:27;;;;;;;32.40;15.93;;;;;;;;;;5055177;28;20033;-61
2022/01/16 05:33:53;;;;;;;32.40;16.00;;;;;;;;;;5064257;28;20056;-61
2022/01/16 05:36:20;;;;;;;33.05;15.43;;;;;;;;;;5065467;28;20074;-61
2022/01/16 05:38:47;;;;;;;34.95;15.93;;;;;;;;;;5065862;28;20054;-61
2022/01/16 05:41:13;;;;;;;31.65;14.90;;;;;;;;;;5063261;28;20045;-61
2022/01/16 05:43:39;;;;;;;32.50;15.32;;;;;;;;;;5049554;28;20035;-61
2022/01/16 05:46:05;;;;;;;30.83;15.48;;;;;;;;;;5045492;28;20565;-61
2022/01/16 05:48:31;;;;;;;31.60;15.82;;;;;;;;;;5045567;28;20053;-61
2022/01/16 05:50:58;;;;;;;34.15;16.73;;;;;;;;;;5045271;28;20064;-61
2022/01/16 05:53:24;;;;;;;31.38;16.08;;;;;;;;;;5063600;28;20108;-61
2022/01/16 05:55:50;;;;;;;31.85;15.23;;;;;;;;;;5065573;28;20057;-61
2022/01/16 05:58:16;;;;;;;30.63;15.45;;;;;;;;;;5051638;28;20420;-61
2022/01/16 06:00:44;;;;;;;34.25;17.30;;;;;;;;;;5046284;28;20090;-61
2022/01/16 06:03:10;;;;;;;32.53;15.18;;;;;;;;;;5045613;28;20048;-61
2022/01/16 06:05:36;;;;;;;32.78;14.85;;;;;;;;;;5068964;28;20369;-61
2022/01/16 06:08:08;;;;;;;32.53;15.48;;;;;;;;;;5069126;28;20144;-61
2022/01/16 06:10:34;;;;;;;36.85;16.65;;;;;;;;;;5068967;28;20082;-61
2022/01/16 06:13:02;;;;;;;35.60;16.95;;;;;;;;;;5056217;28;20100;-61
2022/01/16 06:15:27;;;;;;;31.58;16.33;;;;;;;;;;5048876;28;20074;-61
2022/01/16 06:17:54;;;;;;;33.75;15.95;;;;;;;;;;5056813;28;20441;-61
2022/01/16 06:20:20;;;;;;;32.58;16.05;;;;;;;;;;5068415;28;20094;-61
2022/01/16 06:22:46;;;;;;;32.97;15.73;;;;;;;;;;5069056;28;20017;-61
2022/01/16 06:25:13;;;;;;;34.35;16.42;;;;;;;;;;5068944;28;20039;-61
2022/01/16 06:27:39;;;;;;;35.17;15.93;;;;;;;;;;5058511;28;20021;-61
2022/01/16 06:30:07;;;;;;;32.85;16.42;;;;;;;;;;5049059;28;20403;-61
2022/01/16 06:32:33;;;;;;;35.80;17.52;;;;;;;;;;5048418;28;20028;-61
2022/01/16 06:34:59;;;;;;;34.97;16.67;;;;;;;;;;5048752;28;20036;-61
2022/01/16 06:37:26;;;;;;;32.70;15.30;;;;;;;;;;5047883;28;20021;-61
2022/01/16 06:39:52;;;;;;;35.70;17.23;;;;;;;;;;5055133;28;20054;-61
2022/01/16 06:42:19;;;;;;;32.33;16.88;;;;;;;;;;5060746;28;20025;-61
2022/01/16 06:44:45;;;;;;;30.98;15.63;;;;;;;;;;5046915;28;20075;-61
2022/01/16 06:47:12;;;;;;;36.47;17.60;;;;;;;;;;5056633;28;20056;-61
2022/01/16 06:49:38;;;;;;;32.28;16.45;;;;;;;;;;5048274;28;20032;-61
2022/01/16 06:52:04;;;;;;;31.90;16.50;;;;;;;;;;5048573;28;20032;-61
2022/01/16 06:54:30;;;;;;;37.03;17.00;;;;;;;;;;5044445;28;20013;-61
2022/01/16 06:56:56;;;;;;;32.05;16.50;;;;;;;;;;5029370;28;20025;-61
2022/01/16 06:59:23;;;;;;;34.33;16.27;;;;;;;;;;5046118;28;20459;-61
2022/01/16 07:01:49;;;;;;;35.80;16.60;;;;;;;;;;5063926;28;20048;-61
2022/01/16 07:04:17;;;;;;;34.58;17.02;;;;;;;;;;5066801;28;20071;-61
2022/01/16 07:06:43;;;;;;;38.80;19.25;;;;;;;;;;5067060;28;20523;-61
2022/01/16 07:09:09;;;;;;;39.30;19.10;;;;;;;;;;5066732;28;20044;-61
2022/01/16 07:11:36;;;;;;;36.80;17.60;;;;;;;;;;5066626;28;20076;-61
2022/01/16 07:14:02;;;;;;;37.63;18.80;;;;;;;;;;5059495;28;20078;-61
2022/01/16 07:16:28;;;;;;;38.13;18.60;;;;;;;;;;5064404;28;20499;-61
2022/01/16 07:18:54;;;;;;;38.17;18.55;;;;;;;;;;5058441;28;20022;-61
2022/01/16 07:21:20;;;;;;;36.50;18.30;;;;;;;;;;5056528;28;20511;-61
2022/01/16 07:23:48;;;;;;;36.38;17.67;;;;;;;;;;5047731;28;20441;-60
2022/01/16 07:26:18;;;;;;;37.83;18.20;;;;;;;;;;5058276;28;20025;-61
2022/01/16 07:28:44;;;;;;;36.08;18.02;;;;;;;;;;5046777;28;20186;-61
2022/01/16 07:31:10;;;;;;;37.42;17.83;;;;;;;;;;5053100;28;20026;-61
2022/01/16 07:33:38;;;;;;;40.70;18.83;;;;;;;;;;5061518;28;20091;-60
2022/01/16 07:36:04;;;;;;;36.47;17.65;;;;;;;;;;5049741;28;20064;-61
2022/01/16 07:38:30;;;;;;;39.05;18.33;;;;;;;;;;5059831;28;20039;-61
2022/01/16 07:40:56;;;;;;;39.28;18.42;;;;;;;;;;5068101;28;20039;-61
2022/01/16 07:43:23;;;;;;;38.08;17.90;;;;;;;;;;5053821;28;20060;-61
2022/01/16 07:45:49;;;;;;;38.13;18.45;;;;;;;;;;5065224;28;20369;-61
2022/01/16 07:48:15;;;;;;;41.53;18.63;;;;;;;;;;5067190;28;20415;-61
2022/01/16 07:50:41;;;;;;;38.70;18.65;;;;;;;;;;5067533;28;20028;-61
2022/01/16 07:53:08;;;;;;;41.38;19.40;;;;;;;;;;5065857;28;20052;-61
2022/01/16 07:55:34;;;;;;;39.92;19.08;;;;;;;;;;5066920;28;20039;-61
2022/01/16 07:58:00;;;;;;;39.88;20.67;;;;;;;;;;5053004;28;20025;-61
2022/01/16 08:00:27;;;;;;;43.55;18.88;;;;;;;;;;5047413;28;20032;-60
2022/01/16 08:02:54;;;;;;;39.85;18.45;;;;;;;;;;5047873;28;20032;-61
2022/01/16 08:05:20;;;;;;;41.92;18.45;;;;;;;;;;5055803;28;20380;-61
2022/01/16 08:07:46;;;;;;;45.13;20.35;;;;;;;;;;5065201;28;20035;-61
2022/01/16 08:10:13;;;;;;;42.30;20.33;;;;;;;;;;5066924;28;20094;-60
2022/01/16 08:12:39;;;;;;;42.78;19.88;;;;;;;;;;5058183;28;20021;-60
2022/01/16 08:15:06;;;;;;;41.03;19.98;;;;;;;;;;5046023;28;20484;-61
2022/01/16 08:17:32;;;;;;;45.90;21.00;;;;;;;;;;5055199;28;20107;-61
2022/01/16 08:19:58;;;;;;;45.22;20.38;;;;;;;;;;5059232;28;20247;-60
2022/01/16 08:22:24;;;;;;;47.10;20.98;;;;;;;;;;5046230;28;20029;-60
2022/01/16 08:24:50;;;;;;;48.97;22.33;;;;;;;;;;5044591;28;20098;-60
2022/01/16 08:27:16;;;;;;;48.38;21.63;;;;;;;;;;5046842;28;20159;-60
2022/01/16 08:29:43;;;;;;;43.90;20.45;;;;;;;;;;5046891;28;20029;-61
2022/01/16 08:32:10;;;;;;;50.03;21.27;;;;;;;;;;5042169;28;20055;-60
2022/01/16 08:34:36;;;;;;;47.92;22.20;;;;;;;;;;5067378;28;20053;-61
2022/01/16 08:37:02;;;;;;;47.45;22.33;;;;;;;;;;5058456;28;20068;-60
2022/01/16 08:39:28;;;;;;;51.55;24.15;;;;;;;;;;5061519;28;20108;-61
2022/01/16 08:41:54;;;;;;;51.38;23.13;;;;;;;;;;5065512;28;20505;-60
2022/01/16 08:44:21;;;;;;;56.53;25.15;;;;;;;;;;5050794;28;20024;-61
2022/01/16 08:46:47;;;;;;;53.35;25.42;;;;;;;;;;5046073;28;20424;-60
2022/01/16 08:49:14;;;;;;;54.97;25.25;;;;;;;;;;5054991;28;20032;-61
2022/01/16 08:51:41;;;;;;;51.50;24.23;;;;;;;;;;5050679;28;20112;-61
2022/01/16 08:54:07;;;;;;;49.20;23.48;;;;;;;;;;5046678;28;20086;-61
2022/01/16 08:56:33;;;;;;;45.53;21.73;;;;;;;;;;5045708;28;20035;-61
2022/01/16 08:59:00;;;;;;;46.58;22.58;;;;;;;;;;5045186;28;20495;-61
2022/01/16 09:01:27;;;;;;;47.22;22.95;;;;;;;;;;5047083;28;20558;-61
2022/01/16 09:03:53;;;;;;;47.80;21.88;;;;;;;;;;5057392;28;20033;-61
2022/01/16 09:06:19;;;;;;;44.47;20.92;;;;;;;;;;5047271;28;20518;-61
2022/01/16 09:08:46;;;;;;;49.25;22.70;;;;;;;;;;5049323;28;20029;-61
2022/01/16 09:11:12;;;;;;;43.97;21.52;;;;;;;;;;5065342;28;20078;-61
2022/01/16 09:13:40;;;;;;;45.80;21.88;;;;;;;;;;5048908;28;20074;-61
2022/01/16 09:16:08;;;;;;;46.35;22.73;;;;;;;;;;5060943;28;20058;-61
2022/01/16 09:18:35;;;;;;;49.22;21.90;;;;;;;;;;5065408;28;20036;-61
2022/01/16 09:21:02;;;;;;;48.05;24.08;;;;;;;;;;5065635;28;20614;-61
2022/01/16 09:23:29;;;;;;;45.33;22.05;;;;;;;;;;5063161;28;20025;-61
2022/01/16 09:25:55;;;;;;;58.25;26.35;;;;;;;;;;5066198;28;20071;-60
2022/01/16 09:28:21;;;;;;;58.38;26.25;;;;;;;;;;5059636;28;20407;-60
2022/01/16 09:30:47;;;;;;;62.65;27.92;;;;;;;;;;5062896;28;20033;-61
2022/01/16 09:33:15;;;;;;;62.13;28.65;;;;;;;;;;5043927;28;20271;-60
2022/01/16 09:35:41;;;;;;;62.95;28.98;;;;;;;;;;5043568;28;20021;-60
2022/01/16 09:38:08;;;;;;;62.38;27.08;;;;;;;;;;5043588;28;20040;-60
2022/01/16 09:40:34;;;;;;;62.33;28.05;;;;;;;;;;5048097;28;20347;-60
2022/01/16 09:43:02;;;;;;;64.47;28.17;;;;;;;;;;5048231;28;20264;-61
2022/01/16 09:45:28;;;;;;;60.13;26.95;;;;;;;;;;5048645;28;20028;-60
2022/01/16 09:47:55;;;;;;;53.42;25.20;;;;;;;;;;5052146;28;20448;-60
2022/01/16 09:50:23;;;;;;;51.05;23.15;;;;;;;;;;5069252;28;20077;-60
2022/01/16 09:52:50;;;;;;;48.83;22.77;;;;;;;;;;5069417;28;20040;-60
2022/01/16 09:55:18;;;;;;;52.70;23.65;;;;;;;;;;5068704;28;20021;-60
2022/01/16 09:57:44;;;;;;;47.90;21.92;;;;;;;;;;5060001;28;20029;-60
2022/01/16 10:00:12;;;;;;;44.85;23.00;;;;;;;;;;5042931;28;20029;-60
2022/01/16 10:02:40;;;;;;;55.72;26.15;;;;;;;;;;5043013;28;20531;-60
2022/01/16 10:05:24;;;;;;;53.33;24.88;;;;;;;;;;5038864;28;20036;-60
2022/01/16 10:07:50;;;;;;;51.35;24.17;;;;;;;;;;5048790;28;20043;-60
2022/01/16 10:10:17;;;;;;;49.70;24.52;;;;;;;;;;5047883;28;20017;-60
2022/01/16 10:12:50;;;;;;;51.03;24.33;;;;;;;;;;5046733;28;20029;-60
2022/01/16 10:15:24;;;;;;;49.92;24.05;;;;;;;;;;5047192;28;20040;-60
2022/01/16 10:17:51;;;;;;;49.40;24.05;;;;;;;;;;5046569;28;20396;-60
2022/01/16 10:20:17;;;;;;;47.28;22.75;;;;;;;;;;5052761;28;20036;-60
2022/01/16 10:22:48;;;;;;;44.63;21.70;;;;;;;;;;5050089;28;20060;-59
2022/01/16 10:25:16;;;;;;;46.38;21.40;;;;;;;;;;5046545;28;20028;-60
2022/01/16 10:27:45;;;;;;;46.50;22.75;;;;;;;;;;5040688;28;20032;-59
2022/01/16 10:30:14;;;;;;;42.67;20.48;;;;;;;;;;5042468;28;20074;-60
2022/01/16 10:32:41;;;;;;;39.70;19.48;;;;;;;;;;5045107;28;20161;-60
2022/01/16 10:35:22;;;;;;;41.95;19.92;;;;;;;;;;5046409;28;20025;-60
2022/01/16 10:37:53;;;;;;;42.58;19.85;;;;;;;;;;5029162;28;20030;-59
2022/01/16 10:40:20;;;;;;;41.90;19.30;;;;;;;;;;5029373;28;20028;-60
2022/01/16 10:42:53;;;;;;;42.10;20.20;;;;;;;;;;5043477;28;20036;-60
2022/01/16 10:45:23;;;;;;;44.05;21.45;;;;;;;;;;5068620;28;20021;-60
2022/01/16 10:47:53;;;;;;;48.78;23.05;;;;;;;;;;5068709;28;20028;-59
2022/01/16 10:50:24;;;;;;;44.78;20.73;;;;;;;;;;5069000;28;20041;-60
2022/01/16 10:52:58;;;;;;;42.13;19.92;;;;;;;;;;5068969;28;20025;-60
2022/01/16 10:55:34;;;;;;;45.50;22.20;;;;;;;;;;5054094;28;20020;-60
2022/01/16 10:58:02;;;;;;;43.80;22.83;;;;;;;;;;5051324;28;20896;-60
2022/01/16 11:00:28;;;;;;;47.67;21.10;;;;;;;;;;5046138;28;20032;-60
2022/01/16 11:02:58;;;;;;;43.03;21.48;;;;;;;;;;5048103;28;20033;-60
2022/01/16 11:05:26;;;;;;;42.65;20.83;;;;;;;;;;5048457;28;20489;-60
2022/01/16 11:07:59;;;;;;;41.65;20.95;;;;;;;;;;5049396;28;20045;-59
2022/01/16 11:10:27;;;;;;;46.43;21.60;;;;;;;;;;5047067;28;20029;-60
2022/01/16 11:12:54;;;;;;;42.92;20.80;;;;;;;;;;5048613;28;20271;-60
2022/01/16 11:15:20;;;;;;;42.88;21.45;;;;;;;;;;5050836;28;20163;-60
2022/01/16 11:17:47;;;;;;;46.15;23.35;;;;;;;;;;5053132;28;20123;-60
2022/01/16 11:20:14;;;;;;;45.55;22.58;;;;;;;;;;5038465;28;20043;-59
2022/01/16 11:25:33;;;;;;;42.40;21.65;;;;;;;;;;5038909;28;20559;-59
2022/01/16 11:28:00;;;;;;;41.67;20.50;;;;;;;;;;5038447;28;20017;-60
2022/01/16 11:30:27;;;;;;;42.50;20.70;;;;;;;;;;5048567;28;20029;-57
2022/01/16 11:32:54;;;;;;;40.90;19.52;;;;;;;;;;5045943;28;20017;-57
2022/01/16 11:35:20;;;;;;;38.22;18.73;;;;;;;;;;5042332;28;20021;-57
2022/01/16 11:37:46;;;;;;;43.22;22.00;;;;;;;;;;5041977;28;20037;-57
2022/01/16 11:40:24;;;;;;;47.28;22.42;;;;;;;;;;5029216;28;20040;-57
2022/01/16 11:43:09;;;;;;;46.25;22.30;;;;;;;;;;5047673;28;20021;-57
2022/01/16 11:45:44;;;;;;;45.60;22.45;;;;;;;;;;5048058;28;20584;-57
2022/01/16 11:48:10;;;;;;;43.22;22.08;;;;;;;;;;5062012;28;20032;-56
2022/01/16 11:50:36;;;;;;;45.90;22.42;;;;;;;;;;5068057;28;20082;-54
2022/01/16 11:53:02;;;;;;;45.92;22.55;;;;;;;;;;5057132;28;20417;-55
2022/01/16 11:55:35;;;;;;;45.05;21.70;;;;;;;;;;5046706;28;20029;-55
2022/01/16 11:58:01;;;;;;;51.17;23.50;;;;;;;;;;5045750;28;20024;-55
2022/01/16 12:00:48;;;;;;;49.35;24.27;;;;;;;;;;5046591;28;20503;-55
2022/01/16 12:03:34;;;;;;;47.80;23.65;;;;;;;;;;5047656;28;20377;-55
2022/01/16 12:06:33;;;;;;;49.28;22.60;;;;;;;;;;5048161;28;20025;-56
2022/01/16 12:09:01;;;;;;;43.60;20.77;;;;;;;;;;5005181;28;20056;-56
2022/01/16 12:11:38;;;;;;;44.05;21.88;;;;;;;;;;5027549;28;20044;-56
2022/01/16 12:14:04;;;;;;;43.85;22.23;;;;;;;;;;5046854;28;20411;-56
2022/01/16 12:16:33;;;;;;;44.83;21.60;;;;;;;;;;5045589;28;20424;-56
2022/01/16 12:19:19;;;;;;;43.72;22.17;;;;;;;;;;5047365;28;20021;-56
2022/01/16 12:21:55;;;;;;;47.33;21.90;;;;;;;;;;5047071;28;20536;-56
2022/01/16 12:24:38;;;;;;;42.75;21.75;;;;;;;;;;5040710;28;20489;-56
2022/01/16 12:27:24;;;;;;;47.65;23.42;;;;;;;;;;5049834;28;20029;-56
2022/01/16 12:30:14;;;;;;;48.15;24.17;;;;;;;;;;5041412;28;20045;-56
2022/01/16 12:32:50;;;;;;;50.38;24.58;;;;;;;;;;5041180;28;20047;-56
2022/01/16 12:35:36;;;;;;;51.45;24.60;;;;;;;;;;5041570;28;20059;-56
2022/01/16 12:38:09;;;;;;;50.38;23.73;;;;;;;;;;5038468;28;20032;-56
2022/01/16 12:40:38;;;;;;;51.15;25.38;;;;;;;;;;5047577;28;20025;-56
2022/01/16 12:43:09;;;;;;;52.58;24.77;;;;;;;;;;5054392;28;20025;-57
2022/01/16 12:45:41;;;;;;;51.65;24.35;;;;;;;;;;5057794;28;20031;-57
2022/01/16 12:48:08;;;;;;;50.30;24.25;;;;;;;;;;5067556;28;20491;-56
2022/01/16 12:50:34;;;;;;;51.80;25.08;;;;;;;;;;5067364;28;20503;-56
2022/01/16 12:53:01;;;;;;;53.65;25.42;;;;;;;;;;5067495;28;20672;-57
2022/01/16 12:55:28;;;;;;;54.53;25.08;;;;;;;;;;5062111;28;20020;-57
2022/01/16 12:57:54;;;;;;;53.05;26.17;;;;;;;;;;5056107;28;20029;-56
2022/01/16 13:00:20;;;;;;;53.22;25.55;;;;;;;;;;5047048;28;20021;-56
2022/01/16 13:02:53;;;;;;;54.83;25.75;;;;;;;;;;5047041;28;20118;-56
2022/01/16 13:05:21;;;;;;;53.88;26.23;;;;;;;;;;5044714;28;20021;-56
2022/01/16 13:07:47;;;;;;;56.40;27.33;;;;;;;;;;5045699;28;20113;-56
2022/01/16 13:10:13;;;;;;;56.50;26.83;;;;;;;;;;5046169;28;20025;-56
2022/01/16 13:12:40;;;;;;;60.90;28.50;;;;;;;;;;5045861;28;20099;-56
2022/01/16 13:15:06;;;;;;;68.50;31.92;;;;;;;;;;5049082;28;20023;-54
2022/01/16 13:17:33;;;;;;;68.22;31.33;;;;;;;;;;5066314;28;20118;-54
2022/01/16 13:20:01;;;;;;;70.20;32.97;;;;;;;;;;5070525;28;20031;-54
2022/01/16 13:22:32;;;;;;;75.55;33.90;;;;;;;;;;5070313;28;20029;-54
2022/01/16 13:25:00;;;;;;;66.38;31.27;;;;;;;;;;5070177;28;20033;-55
2022/01/16 13:27:27;;;;;;;74.43;35.17;;;;;;;;;;5061570;28;20033;-54
2022/01/16 13:30:01;;;;;;;72.25;34.90;;;;;;;;;;5050123;28;20025;-54
2022/01/16 13:32:28;;;;;;;75.70;34.00;;;;;;;;;;5050278;28;20120;-54
2022/01/16 13:34:55;;;;;;;71.47;33.60;;;;;;;;;;5046999;28;20026;-54
2022/01/16 13:37:26;;;;;;;70.38;33.90;;;;;;;;;;5041612;28;20017;-56
2022/01/16 13:39:59;;;;;;;69.18;33.50;;;;;;;;;;5041587;28;20086;-54
2022/01/16 13:45:29;;;;;;;61.45;31.10;;;;;;;;;;5050493;28;20064;-55
2022/01/16 13:48:00;;;;;;;63.22;30.63;;;;;;;;;;5064984;28;20387;-56
2022/01/16 13:50:28;;;;;;;64.47;31.77;;;;;;;;;;5066394;28;20092;-55
2022/01/16 13:52:56;;;;;;;59.70;29.30;;;;;;;;;;5069729;28;20028;-55
2022/01/16 13:55:23;;;;;;;56.50;28.23;;;;;;;;;;5069629;28;20020;-56
2022/01/16 13:57:50;;;;;;;57.15;28.60;;;;;;;;;;5055411;28;20044;-55
2022/01/16 14:00:19;;;;;;;58.65;28.85;;;;;;;;;;5053794;28;20100;-55
2022/01/16 14:02:45;;;;;;;54.92;28.08;;;;;;;;;;5050102;28;20112;-55
2022/01/16 14:05:21;;;;;;;58.75;29.25;;;;;;;;;;5048249;28;20036;-55
2022/01/16 14:07:47;;;;;;;54.15;27.60;;;;;;;;;;5069376;28;20036;-55
2022/01/16 14:10:13;;;;;;;53.97;27.17;;;;;;;;;;5067398;28;20078;-55
2022/01/16 14:12:53;;;;;;;52.83;27.48;;;;;;;;;;5061332;28;20361;-55
2022/01/16 14:15:19;;;;;;;51.22;26.38;;;;;;;;;;5049279;28;20016;-55
2022/01/16 14:18:07;;;;;;;49.63;26.10;;;;;;;;;;5048271;28;20503;-55
2022/01/16 14:20:51;;;;;;;53.13;26.42;;;;;;;;;;5039011;28;20041;-55
2022/01/16 14:23:17;;;;;;;;;;;;;;;;;;5049196;28;20086;-55
2022/01/16 14:25:44;;;;;;;55.85;28.10;;;;;;;;;;5068842;28;20366;-54
2022/01/16 14:28:10;;;;;;;53.72;26.40;;;;;;;;;;5055440;28;20420;-55
2022/01/16 14:30:36;;;;;;;53.90;27.08;;;;;;;;;;5049000;28;20071;-53
2022/01/16 14:33:02;;;;;;;52.05;25.80;;;;;;;;;;5047947;28;20637;-54
2022/01/16 14:35:28;;;;;;;50.90;25.83;;;;;;;;;;5048461;28;20051;-55
2022/01/16 14:37:55;;;;;;;50.58;26.80;;;;;;;;;;5042090;28;20636;-55
2022/01/16 14:40:21;;;;;;;55.95;27.50;;;;;;;;;;5048599;28;20029;-55
2022/01/16 14:42:56;;;;;;;56.42;27.73;;;;;;;;;;5051053;28;20036;-55
2022/01/16 14:45:23;;;;;;;53.83;29.17;;;;;;;;;;5068689;28;20044;-56
2022/01/16 14:47:49;;;;;;;59.13;30.02;;;;;;;;;;5047712;28;20057;-56
2022/01/16 14:50:15;;;;;;;57.60;28.60;;;;;;;;;;5068363;28;20028;-56
2022/01/16 14:52:41;;;;;;;58.63;30.15;;;;;;;;;;5059735;28;20025;-56
2022/01/16 14:55:08;;;;;;;57.38;28.95;;;;;;;;;;5049119;28;20651;-56
2022/01/16 14:57:34;;;;;;;52.90;27.30;;;;;;;;;;5045905;28;20032;-56
2022/01/16 15:00:00;;;;;;;46.15;25.90;;;;;;;;;;5048665;28;20370;-56
2022/01/16 15:02:33;;;;;;;51.38;26.02;;;;;;;;;;5046988;28;20404;-56
2022/01/16 15:04:59;;;;;;;45.65;23.77;;;;;;;;;;5048388;28;20032;-57
2022/01/16 15:07:25;;;;;;;50.63;26.33;;;;;;;;;;5047903;28;20094;-57
2022/01/16 15:09:51;;;;;;;46.50;24.73;;;;;;;;;;5064735;28;20550;-56
2022/01/16 15:12:17;;;;;;;46.28;24.38;;;;;;;;;;5052238;28;20407;-56
2022/01/16 15:14:44;;;;;;;46.17;24.75;;;;;;;;;;5049903;28;20093;-56
2022/01/16 15:17:11;;;;;;;47.08;24.55;;;;;;;;;;5060329;28;20025;-56
2022/01/16 15:19:37;;;;;;;46.65;23.88;;;;;;;;;;5044206;28;20666;-59